Time;durP1;ratioP1;P1;durP2;ratioP2;P2;SDS_P1;SDS_P2;PMS_P1;PMS_P2;Temp;Humidity;BMP_temperature;BMP_pressure;BME280_temperature;BME280_humidity;BME280_pressure;Samples;Min_cycle;Max_cycle;Signal;HPM_P1;HPM_P2
2023/08/05 01:35:14;;;;;;;0.40;0.40;;;;;;;;;;7392639;19;20181;-89
2023/08/05 01:37:40;;;;;;;0.68;0.68;;;;;;;;;;7398072;19;20126;-88
2023/08/05 01:40:08;;;;;;;0.55;0.52;;;;;;;;;;7395371;19;20138;-88
2023/08/05 01:42:34;;;;;;;0.40;0.40;;;;;;;;;;7394736;19;20142;-89
2023/08/05 01:45:01;;;;;;;0.88;0.88;;;;;;;;;;7395113;19;20141;-88
2023/08/05 01:47:28;;;;;;;0.50;0.50;;;;;;;;;;7400579;19;20121;-88
2023/08/05 01:49:54;;;;;;;0.38;0.38;;;;;;;;;;7403530;19;20129;-89
2023/08/05 01:52:21;;;;;;;0.40;0.40;;;;;;;;;;7402083;19;20147;-89
2023/08/05 01:55:02;;;;;;;0.38;0.38;;;;;;;;;;7395841;19;20169;-92
2023/08/05 01:57:34;;;;;;;0.47;0.47;;;;;;;;;;7394633;19;20140;-91
2023/08/05 02:00:02;;;;;;;0.47;0.47;;;;;;;;;;7394440;19;20154;-89
2023/08/05 02:02:53;;;;;;;4.93;0.93;;;;;;;;;;7396394;19;20153;-91
2023/08/05 02:05:26;;;;;;;0.30;0.30;;;;;;;;;;7392810;19;20164;-91
2023/08/05 02:07:54;;;;;;;0.40;0.40;;;;;;;;;;7393085;19;20156;-91
2023/08/05 02:10:34;;;;;;;0.50;0.50;;;;;;;;;;7394324;19;20155;-93
2023/08/05 02:13:01;;;;;;;0.43;0.43;;;;;;;;;;7412675;19;20130;-96
2023/08/05 02:15:34;;;;;;;1.02;0.88;;;;;;;;;;7419356;19;20132;-94
2023/08/05 02:29:02;;;;;;;0.40;0.40;;;;;;;;;;7416705;19;20156;-96
2023/08/05 02:31:28;;;;;;;0.57;0.57;;;;;;;;;;7417420;19;20153;-95
2023/08/05 02:33:55;;;;;;;0.50;0.50;;;;;;;;;;7404989;19;20189;-93
2023/08/05 02:36:22;;;;;;;0.50;0.50;;;;;;;;;;7400053;19;20148;-94
2023/08/05 02:38:49;;;;;;;0.82;0.82;;;;;;;;;;7404083;19;20137;-93
2023/08/05 02:41:16;;;;;;;0.50;0.50;;;;;;;;;;7401972;19;20888;-93
2023/08/05 02:43:42;;;;;;;0.60;0.60;;;;;;;;;;7400702;19;20156;-94
2023/08/05 02:46:09;;;;;;;0.40;0.40;;;;;;;;;;7405562;19;20214;-93
2023/08/05 02:48:36;;;;;;;0.60;0.50;;;;;;;;;;7400699;19;20151;-94
2023/08/05 02:51:02;;;;;;;0.30;0.30;;;;;;;;;;7410578;19;20137;-94
2023/08/05 02:53:30;;;;;;;0.30;0.30;;;;;;;;;;7414682;19;20137;-94
2023/08/05 02:55:57;;;;;;;0.65;0.65;;;;;;;;;;7409368;19;20149;-94
2023/08/05 02:58:23;;;;;;;1.17;0.63;;;;;;;;;;7398660;19;20510;-93
2023/08/05 03:00:50;;;;;;;0.30;0.30;;;;;;;;;;7398492;19;20173;-94
2023/08/05 03:03:17;;;;;;;0.47;0.47;;;;;;;;;;7408943;19;20125;-93
2023/08/05 03:05:44;;;;;;;0.40;0.40;;;;;;;;;;7409863;19;20137;-94
2023/08/05 03:08:10;;;;;;;0.70;0.70;;;;;;;;;;7398490;19;20149;-92
2023/08/05 03:10:39;;;;;;;0.95;0.60;;;;;;;;;;7395984;19;20166;-92
2023/08/05 03:13:25;;;;;;;0.40;0.40;;;;;;;;;;7398231;19;20141;-91
2023/08/05 03:15:53;;;;;;;0.52;0.52;;;;;;;;;;7397666;19;20144;-90
2023/08/05 03:18:34;;;;;;;0.70;0.70;;;;;;;;;;7408536;19;20152;-93
2023/08/05 03:21:04;;;;;;;0.45;0.45;;;;;;;;;;7418536;19;20615;-93
2023/08/05 03:29:04;;;;;;;0.50;0.50;;;;;;;;;;7409697;19;20714;-83
2023/08/05 03:31:31;;;;;;;1.30;1.30;;;;;;;;;;7401314;19;20205;-90
2023/08/05 03:33:58;;;;;;;0.77;0.77;;;;;;;;;;7400964;19;20178;-90
2023/08/05 03:36:25;;;;;;;0.40;0.40;;;;;;;;;;7396572;19;20125;-90
2023/08/05 03:38:51;;;;;;;0.38;0.38;;;;;;;;;;7397044;19;20131;-91
2023/08/05 03:41:18;;;;;;;0.40;0.40;;;;;;;;;;7396624;19;20130;-88
2023/08/05 03:43:45;;;;;;;0.60;0.60;;;;;;;;;;7395037;19;20157;-89
2023/08/05 03:46:11;;;;;;;0.30;0.30;;;;;;;;;;7394428;19;20208;-92
2023/08/05 03:48:38;;;;;;;0.60;0.60;;;;;;;;;;7394474;19;20138;-91
2023/08/05 03:51:21;;;;;;;1.00;0.55;;;;;;;;;;7390390;19;20141;-92
2023/08/05 03:57:37;;;;;;;0.30;0.30;;;;;;;;;;7393028;19;20105;-91
2023/08/05 04:00:25;;;;;;;0.55;0.55;;;;;;;;;;7389232;19;20730;-93
2023/08/05 04:02:52;;;;;;;0.30;0.30;;;;;;;;;;7389253;19;20531;-91
2023/08/05 04:05:18;;;;;;;0.60;0.60;;;;;;;;;;7389968;19;20522;-93
2023/08/05 04:07:46;;;;;;;0.40;0.40;;;;;;;;;;7398321;19;20140;-91
2023/08/05 04:10:13;;;;;;;0.40;0.40;;;;;;;;;;7398803;19;20186;-91
2023/08/05 04:12:40;;;;;;;0.70;0.55;;;;;;;;;;7408285;19;20162;-93
2023/08/05 04:15:08;;;;;;;0.40;0.40;;;;;;;;;;7404291;19;20171;-90
2023/08/05 04:17:35;;;;;;;0.50;0.50;;;;;;;;;;7397842;19;20141;-93
2023/08/05 04:20:02;;;;;;;0.35;0.35;;;;;;;;;;7394903;19;20129;-93
2023/08/05 04:22:30;;;;;;;0.47;0.47;;;;;;;;;;7390458;19;20217;-89
2023/08/05 04:24:57;;;;;;;0.47;0.47;;;;;;;;;;7389214;19;20231;-94
2023/08/05 04:27:24;;;;;;;0.57;0.57;;;;;;;;;;7387926;19;20217;-92
2023/08/05 04:29:51;;;;;;;0.35;0.35;;;;;;;;;;7387643;19;20200;-93
2023/08/05 04:32:18;;;;;;;0.50;0.50;;;;;;;;;;7387674;19;20482;-93
2023/08/05 04:34:44;;;;;;;0.70;0.70;;;;;;;;;;7388679;19;20180;-93
2023/08/05 04:37:19;;;;;;;1.80;0.80;;;;;;;;;;7391343;19;20612;-92
2023/08/05 04:39:46;;;;;;;1.02;1.02;;;;;;;;;;7390263;19;20203;-93
2023/08/05 04:42:13;;;;;;;0.65;0.65;;;;;;;;;;7392332;19;20141;-92
2023/08/05 04:44:40;;;;;;;0.63;0.63;;;;;;;;;;7386345;19;20363;-92
2023/08/05 04:47:10;;;;;;;0.30;0.30;;;;;;;;;;7385644;19;20591;-91
2023/08/05 04:49:41;;;;;;;1.02;1.02;;;;;;;;;;7389784;19;20144;-92
2023/08/05 04:52:08;;;;;;;0.57;0.57;;;;;;;;;;7392135;19;20243;-91
2023/08/05 05:29:44;;;;;;;0.60;0.60;;;;;;;;;;7400782;19;20553;-93
2023/08/05 05:32:11;;;;;;;0.50;0.50;;;;;;;;;;7394939;19;20647;-91
2023/08/05 05:34:38;;;;;;;0.30;0.30;;;;;;;;;;7395010;19;20216;-92
2023/08/05 05:37:04;;;;;;;0.30;0.30;;;;;;;;;;7393769;19;20246;-92
2023/08/05 05:39:32;;;;;;;0.35;0.35;;;;;;;;;;7391992;19;20141;-90
2023/08/05 05:41:59;;;;;;;1.25;1.25;;;;;;;;;;7396061;19;20701;-91
2023/08/05 05:44:29;;;;;;;0.40;0.40;;;;;;;;;;7393963;19;20172;-91
2023/08/05 05:46:56;;;;;;;1.10;0.50;;;;;;;;;;7396444;19;20137;-91
2023/08/05 05:49:23;;;;;;;0.43;0.43;;;;;;;;;;7395538;19;20519;-92
2023/08/05 05:51:49;;;;;;;0.57;0.57;;;;;;;;;;7395242;19;20171;-92
2023/08/05 05:54:16;;;;;;;0.47;0.47;;;;;;;;;;7394046;19;20534;-93
2023/08/05 05:56:43;;;;;;;0.68;0.68;;;;;;;;;;7396744;19;20141;-93
2023/08/05 05:59:10;;;;;;;0.45;0.45;;;;;;;;;;7395152;19;20125;-92
2023/08/05 06:01:37;;;;;;;0.52;0.47;;;;;;;;;;7393698;19;20137;-92
2023/08/05 06:04:07;;;;;;;0.30;0.30;;;;;;;;;;7393930;19;20148;-92
2023/08/05 06:06:35;;;;;;;0.30;0.30;;;;;;;;;;7392151;19;20493;-93
2023/08/05 06:09:03;;;;;;;0.50;0.50;;;;;;;;;;7394638;19;20133;-92
2023/08/05 06:11:33;;;;;;;0.40;0.40;;;;;;;;;;7394963;19;20141;-92
2023/08/05 06:14:00;;;;;;;0.40;0.40;;;;;;;;;;7391185;19;20165;-92
2023/08/05 06:16:26;;;;;;;0.43;0.43;;;;;;;;;;7394121;19;20665;-92
2023/08/05 06:18:53;;;;;;;0.30;0.30;;;;;;;;;;7393059;19;20133;-92
2023/08/05 06:21:20;;;;;;;0.40;0.40;;;;;;;;;;7391690;19;20145;-92
2023/08/05 06:23:49;;;;;;;0.47;0.47;;;;;;;;;;7394273;19;20148;-92
2023/08/05 06:26:16;;;;;;;0.75;0.60;;;;;;;;;;7394885;19;20141;-92
2023/08/05 06:28:42;;;;;;;0.40;0.40;;;;;;;;;;7393995;19;20133;-91
2023/08/05 06:31:09;;;;;;;0.40;0.40;;;;;;;;;;7393164;19;20508;-93
2023/08/05 06:33:36;;;;;;;0.50;0.50;;;;;;;;;;7392542;19;20153;-92
2023/08/05 06:36:03;;;;;;;0.60;0.60;;;;;;;;;;7394719;19;20117;-92
2023/08/05 06:38:30;;;;;;;0.40;0.40;;;;;;;;;;7391519;19;20220;-92
2023/08/05 06:40:56;;;;;;;0.40;0.40;;;;;;;;;;7394120;19;20139;-92
2023/08/05 06:48:01;;;;;;;0.50;0.50;;;;;;;;;;7390805;19;20133;-92
2023/08/05 06:50:28;;;;;;;0.40;0.40;;;;;;;;;;7388647;19;20141;-94
2023/08/05 06:52:55;;;;;;;0.60;0.60;;;;;;;;;;7388473;19;20572;-91
2023/08/05 06:55:24;;;;;;;0.50;0.43;;;;;;;;;;7388725;19;20228;-91
2023/08/05 06:57:52;;;;;;;0.57;0.57;;;;;;;;;;7387242;19;20494;-92
2023/08/05 07:00:51;;;;;;;1.75;0.55;;;;;;;;;;7390278;19;20154;-91
2023/08/05 07:03:18;;;;;;;0.80;0.80;;;;;;;;;;7391651;19;20137;-89
2023/08/05 07:05:44;;;;;;;0.55;0.50;;;;;;;;;;7397599;19;20147;-89
2023/08/05 07:08:11;;;;;;;0.40;0.40;;;;;;;;;;7399244;19;20187;-89
2023/08/05 07:10:38;;;;;;;0.40;0.40;;;;;;;;;;7397282;19;20200;-87
2023/08/05 07:13:06;;;;;;;0.43;0.43;;;;;;;;;;7393140;19;20505;-87
2023/08/05 07:16:07;;;;;;;0.55;0.52;;;;;;;;;;7394929;19;20149;-91
2023/08/05 07:19:53;;;;;;;0.30;0.30;;;;;;;;;;7391159;19;20152;-93
2023/08/05 07:23:07;;;;;;;0.60;0.60;;;;;;;;;;7389833;19;20136;-93
2023/08/05 07:25:38;;;;;;;0.40;0.40;;;;;;;;;;7390007;19;20181;-90
2023/08/05 07:51:18;;;;;;;0.30;0.30;;;;;;;;;;7395027;19;20145;-90
2023/08/05 07:53:47;;;;;;;0.70;0.70;;;;;;;;;;7394030;19;20168;-91
2023/08/05 07:56:15;;;;;;;0.82;0.82;;;;;;;;;;7396890;19;20137;-89
2023/08/05 07:58:45;;;;;;;0.40;0.40;;;;;;;;;;7392993;19;20157;-89
2023/08/05 08:01:17;;;;;;;1.05;0.68;;;;;;;;;;7387765;19;20543;-87
2023/08/05 08:03:45;;;;;;;0.30;0.30;;;;;;;;;;7392146;19;20601;-87
2023/08/05 08:06:15;;;;;;;0.38;0.38;;;;;;;;;;7391167;19;20551;-87
2023/08/05 08:08:45;;;;;;;0.68;0.65;;;;;;;;;;7388760;19;20177;-89
2023/08/05 08:11:12;;;;;;;0.50;0.50;;;;;;;;;;7386653;19;20140;-88
2023/08/05 08:13:39;;;;;;;0.57;0.57;;;;;;;;;;7387471;19;20149;-88
2023/08/05 08:16:07;;;;;;;0.60;0.60;;;;;;;;;;7389763;19;20132;-90
2023/08/05 08:18:34;;;;;;;0.43;0.43;;;;;;;;;;7392518;19;20143;-87
2023/08/05 08:21:00;;;;;;;0.57;0.57;;;;;;;;;;7390220;19;20169;-88
2023/08/05 08:23:27;;;;;;;0.73;0.73;;;;;;;;;;7388125;19;20188;-88
2023/08/05 08:25:57;;;;;;;0.50;0.50;;;;;;;;;;7389996;19;20205;-88
2023/08/05 08:28:25;;;;;;;0.50;0.50;;;;;;;;;;7386489;19;20753;-87
2023/08/05 08:30:54;;;;;;;0.52;0.52;;;;;;;;;;7387395;19;20165;-86
2023/08/05 08:33:21;;;;;;;1.95;1.15;;;;;;;;;;7391889;19;20548;-86
2023/08/05 08:35:49;;;;;;;0.65;0.65;;;;;;;;;;7390905;19;20157;-88
2023/08/05 08:38:16;;;;;;;0.80;0.80;;;;;;;;;;7392205;19;20144;-86
2023/08/05 08:40:47;;;;;;;0.63;0.63;;;;;;;;;;7387404;19;20145;-89
2023/08/05 08:43:21;;;;;;;0.80;0.80;;;;;;;;;;7391290;19;20491;-87
2023/08/05 08:45:53;;;;;;;0.55;0.55;;;;;;;;;;7388238;19;20487;-86
2023/08/05 08:48:20;;;;;;;0.80;0.80;;;;;;;;;;7386687;19;20136;-88
2023/08/05 08:50:51;;;;;;;0.77;0.77;;;;;;;;;;7393313;19;20144;-88
2023/08/05 08:54:12;;;;;;;0.38;0.38;;;;;;;;;;7386732;19;20140;-89
2023/08/05 09:00:49;;;;;;;0.93;0.93;;;;;;;;;;7397539;19;20529;-89
2023/08/05 09:03:53;;;;;;;0.70;0.70;;;;;;;;;;7392800;19;20136;-89
2023/08/05 09:07:16;;;;;;;0.50;0.50;;;;;;;;;;7397954;19;20155;-87
2023/08/05 09:13:29;;;;;;;0.50;0.50;;;;;;;;;;7400587;19;20186;-88
2023/08/05 09:19:51;;;;;;;3.60;0.70;;;;;;;;;;7401506;19;20126;-89
2023/08/05 09:22:33;;;;;;;0.70;0.70;;;;;;;;;;7394668;19;20144;-88
2023/08/05 09:25:00;;;;;;;0.50;0.50;;;;;;;;;;7395918;19;20187;-88
2023/08/05 09:27:44;;;;;;;0.60;0.60;;;;;;;;;;7395609;19;20153;-88
2023/08/05 09:30:17;;;;;;;0.60;0.60;;;;;;;;;;7398016;19;20141;-87
2023/08/05 09:32:45;;;;;;;0.47;0.47;;;;;;;;;;7401045;19;20158;-87
2023/08/05 09:35:27;;;;;;;0.40;0.40;;;;;;;;;;7398738;19;20173;-88
2023/08/05 09:37:54;;;;;;;0.40;0.40;;;;;;;;;;7398639;19;20165;-87
2023/08/05 09:40:28;;;;;;;0.80;0.80;;;;;;;;;;7401288;19;20129;-88
2023/08/05 09:43:03;;;;;;;0.30;0.30;;;;;;;;;;7401430;19;20129;-88
2023/08/05 09:45:33;;;;;;;0.82;0.82;;;;;;;;;;7398461;19;20501;-88
2023/08/05 09:48:07;;;;;;;0.77;0.77;;;;;;;;;;7395813;19;20504;-90
2023/08/05 09:50:37;;;;;;;1.63;1.52;;;;;;;;;;7398226;19;20141;-89
2023/08/05 09:53:17;;;;;;;8.77;1.75;;;;;;;;;;7399692;19;20482;-87
2023/08/05 09:55:44;;;;;;;0.95;0.95;;;;;;;;;;7399574;19;20152;-86
2023/08/05 09:58:13;;;;;;;0.98;0.98;;;;;;;;;;7398180;19;20526;-88
2023/08/05 10:00:41;;;;;;;1.42;1.40;;;;;;;;;;7394529;19;20144;-89
2023/08/05 10:03:13;;;;;;;1.00;0.77;;;;;;;;;;7395075;19;20143;-91
2023/08/05 10:05:45;;;;;;;0.68;0.68;;;;;;;;;;7408258;19;20188;-86
2023/08/05 10:08:13;;;;;;;0.98;0.98;;;;;;;;;;7396223;19;20241;-86
2023/08/05 10:10:40;;;;;;;0.70;0.70;;;;;;;;;;7399996;19;20194;-87
2023/08/05 10:13:16;;;;;;;0.85;0.85;;;;;;;;;;7401927;19;20146;-87
2023/08/05 10:15:47;;;;;;;0.95;0.95;;;;;;;;;;7396951;19;20141;-88
2023/08/05 10:18:15;;;;;;;1.65;1.55;;;;;;;;;;7398392;19;20600;-88
2023/08/05 10:20:48;;;;;;;4.20;3.90;;;;;;;;;;7395732;19;20137;-86
2023/08/05 10:23:15;;;;;;;4.22;3.92;;;;;;;;;;7395472;19;20205;-88
2023/08/05 10:25:44;;;;;;;6.57;2.92;;;;;;;;;;7397810;19;20489;-86
2023/08/05 10:28:23;;;;;;;1.08;1.08;;;;;;;;;;7397326;19;20780;-85
2023/08/05 10:30:51;;;;;;;6.63;2.40;;;;;;;;;;7399384;19;20157;-84
2023/08/05 10:33:18;;;;;;;6.03;2.42;;;;;;;;;;7400618;19;20161;-84
2023/08/05 10:35:46;;;;;;;1.25;1.25;;;;;;;;;;7398992;19;20128;-87
2023/08/05 10:38:19;;;;;;;1.70;1.60;;;;;;;;;;7395363;19;20480;-84
2023/08/05 10:40:56;;;;;;;1.63;1.52;;;;;;;;;;7397775;19;20620;-85
2023/08/05 10:43:27;;;;;;;0.90;0.90;;;;;;;;;;7395913;19;20144;-85
2023/08/05 10:45:56;;;;;;;0.47;0.47;;;;;;;;;;7399364;19;20129;-85
2023/08/05 10:48:29;;;;;;;0.43;0.43;;;;;;;;;;7402211;19;20149;-86
2023/08/05 10:50:56;;;;;;;0.30;0.30;;;;;;;;;;7401608;19;20140;-85
2023/08/05 10:53:23;;;;;;;0.57;0.57;;;;;;;;;;7398149;19;20155;-85
2023/08/05 10:55:54;;;;;;;1.20;0.95;;;;;;;;;;7395346;19;20694;-85
2023/08/05 10:58:22;;;;;;;1.20;1.20;;;;;;;;;;7396549;19;20480;-85
2023/08/05 11:01:00;;;;;;;0.63;0.63;;;;;;;;;;7399175;19;20173;-86
2023/08/05 11:03:45;;;;;;;1.25;0.95;;;;;;;;;;7401359;19;20178;-86
2023/08/05 11:06:13;;;;;;;1.30;1.27;;;;;;;;;;7396282;19;20128;-88
2023/08/05 11:08:42;;;;;;;1.55;1.08;;;;;;;;;;7396022;19;20141;-84
2023/08/05 11:11:13;;;;;;;0.63;0.63;;;;;;;;;;7395441;19;20137;-87
2023/08/05 12:58:45;;;;;;;0.90;0.90;;;;;;;;;;7391648;19;20122;-85
2023/08/05 13:01:13;;;;;;;1.33;1.13;;;;;;;;;;7390151;19;20129;-85
2023/08/05 13:03:41;;;;;;;1.35;1.35;;;;;;;;;;7389319;19;20647;-87
2023/08/05 13:06:08;;;;;;;0.85;0.82;;;;;;;;;;7386013;19;20632;-85
2023/08/05 13:08:34;;;;;;;0.90;0.90;;;;;;;;;;7388739;19;20216;-87
2023/08/05 13:11:01;;;;;;;0.57;0.57;;;;;;;;;;7388774;19;20193;-85
2023/08/05 13:13:28;;;;;;;1.05;1.02;;;;;;;;;;7385824;19;20148;-88
2023/08/05 13:15:54;;;;;;;0.77;0.77;;;;;;;;;;7386521;19;20162;-88
2023/08/05 13:18:21;;;;;;;0.90;0.90;;;;;;;;;;7386958;19;20149;-88
2023/08/05 13:20:48;;;;;;;0.50;0.50;;;;;;;;;;7386831;19;20213;-87
2023/08/05 13:23:14;;;;;;;1.52;0.68;;;;;;;;;;7386583;19;20480;-86
2023/08/05 13:25:43;;;;;;;0.85;0.85;;;;;;;;;;7385587;19;20149;-89
2023/08/05 13:28:10;;;;;;;0.50;0.50;;;;;;;;;;7387016;19;20577;-86
2023/08/05 13:30:37;;;;;;;0.60;0.60;;;;;;;;;;7385897;19;20476;-87
2023/08/05 13:33:03;;;;;;;0.80;0.80;;;;;;;;;;7382480;19;20136;-89
2023/08/05 13:35:30;;;;;;;0.47;0.47;;;;;;;;;;7378051;19;20153;-86
2023/08/05 13:37:57;;;;;;;0.95;0.90;;;;;;;;;;7382666;19;20147;-86
2023/08/05 13:40:24;;;;;;;0.40;0.40;;;;;;;;;;7381050;19;20546;-86
2023/08/05 13:42:50;;;;;;;0.68;0.68;;;;;;;;;;7380029;19;20137;-84
2023/08/05 13:45:17;;;;;;;0.40;0.40;;;;;;;;;;7382205;19;20173;-85
2023/08/05 13:47:44;;;;;;;0.50;0.50;;;;;;;;;;7386115;19;20145;-85
2023/08/05 13:50:12;;;;;;;0.60;0.60;;;;;;;;;;7384596;19;20615;-85
2023/08/05 13:52:39;;;;;;;0.68;0.68;;;;;;;;;;7383653;19;20221;-84
2023/08/05 13:55:06;;;;;;;0.50;0.50;;;;;;;;;;7386628;19;20212;-86
2023/08/05 13:57:33;;;;;;;0.43;0.43;;;;;;;;;;7383612;19;20133;-84
2023/08/05 13:59:59;;;;;;;0.82;0.82;;;;;;;;;;7380310;19;20512;-85
2023/08/05 14:02:26;;;;;;;0.80;0.80;;;;;;;;;;7388572;19;20148;-85
2023/08/05 14:04:53;;;;;;;1.85;1.00;;;;;;;;;;7389277;19;20160;-84
2023/08/05 14:07:19;;;;;;;0.52;0.52;;;;;;;;;;7384878;19;20125;-86
2023/08/05 14:09:46;;;;;;;0.43;0.43;;;;;;;;;;7389646;19;20596;-86
2023/08/05 14:12:13;;;;;;;0.50;0.50;;;;;;;;;;7390979;19;20894;-86
2023/08/05 14:14:39;;;;;;;0.68;0.68;;;;;;;;;;7388579;19;20519;-86
2023/08/05 14:17:06;;;;;;;0.40;0.40;;;;;;;;;;7387378;19;20149;-86
2023/08/05 14:19:33;;;;;;;0.40;0.40;;;;;;;;;;7390486;19;20126;-87
2023/08/05 14:22:00;;;;;;;1.40;0.75;;;;;;;;;;7385406;19;20141;-87
2023/08/05 14:24:26;;;;;;;0.30;0.30;;;;;;;;;;7387841;19;20157;-88
2023/08/05 14:26:53;;;;;;;0.63;0.63;;;;;;;;;;7391810;19;20150;-88
2023/08/05 14:29:20;;;;;;;0.40;0.40;;;;;;;;;;7388364;19;20596;-87
2023/08/05 14:31:46;;;;;;;0.35;0.35;;;;;;;;;;7394090;19;20133;-85
2023/08/05 14:34:15;;;;;;;0.50;0.50;;;;;;;;;;7392224;19;20148;-84
2023/08/05 14:36:41;;;;;;;1.17;1.05;;;;;;;;;;7411867;19;20133;-86
2023/08/05 14:39:08;;;;;;;0.30;0.30;;;;;;;;;;7388641;19;20140;-85
2023/08/05 14:41:36;;;;;;;0.50;0.50;;;;;;;;;;7392318;19;20141;-86
2023/08/05 14:44:03;;;;;;;0.40;0.40;;;;;;;;;;7393127;19;20159;-85
2023/08/05 14:46:30;;;;;;;0.52;0.52;;;;;;;;;;7394189;19;20166;-86
2023/08/05 14:48:56;;;;;;;0.63;0.60;;;;;;;;;;7392765;19;20636;-86
2023/08/05 14:51:25;;;;;;;0.55;0.55;;;;;;;;;;7394852;19;20140;-85
2023/08/05 14:53:51;;;;;;;1.30;1.05;;;;;;;;;;7393249;19;20668;-85
2023/08/05 14:56:18;;;;;;;0.40;0.40;;;;;;;;;;7392149;19;20140;-85
2023/08/05 14:58:44;;;;;;;0.80;0.80;;;;;;;;;;7394693;19;20554;-87
2023/08/05 15:01:17;;;;;;;2.70;1.10;;;;;;;;;;7390069;19;20137;-85
2023/08/05 15:03:46;;;;;;;0.50;0.50;;;;;;;;;;7391794;19;20180;-88
2023/08/05 15:06:13;;;;;;;0.50;0.50;;;;;;;;;;7390481;19;20125;-85
2023/08/05 15:08:40;;;;;;;0.45;0.45;;;;;;;;;;7390199;19;20519;-86
2023/08/05 15:11:07;;;;;;;0.50;0.50;;;;;;;;;;7391732;19;20147;-85
2023/08/05 15:13:34;;;;;;;0.65;0.55;;;;;;;;;;7392623;19;20125;-87
2023/08/05 15:16:03;;;;;;;0.40;0.40;;;;;;;;;;7390034;19;20145;-86
2023/08/05 15:18:30;;;;;;;0.50;0.50;;;;;;;;;;7390345;19;20140;-87
2023/08/05 15:21:01;;;;;;;0.32;0.32;;;;;;;;;;7388702;19;20151;-86
2023/08/05 15:23:31;;;;;;;0.95;0.95;;;;;;;;;;7391828;19;20355;-87
2023/08/05 15:26:18;;;;;;;0.50;0.50;;;;;;;;;;7389264;19;20158;-86
2023/08/05 18:13:58;;;;;;;0.40;0.40;;;;;;;;;;7394733;19;20575;-84
2023/08/05 18:16:25;;;;;;;0.40;0.40;;;;;;;;;;7393829;19;20137;-84
2023/08/05 18:18:52;;;;;;;0.50;0.50;;;;;;;;;;7393079;19;20133;-84
2023/08/05 18:21:18;;;;;;;0.70;0.70;;;;;;;;;;7392013;19;20704;-84
2023/08/05 18:23:46;;;;;;;0.65;0.65;;;;;;;;;;7390089;19;20149;-84
2023/08/05 18:26:13;;;;;;;0.30;0.30;;;;;;;;;;7393067;19;20212;-84
2023/08/05 18:28:40;;;;;;;0.40;0.40;;;;;;;;;;7393308;19;20205;-84
2023/08/05 18:31:10;;;;;;;0.95;0.85;;;;;;;;;;7390712;19;20141;-84
2023/08/05 18:33:47;;;;;;;0.63;0.63;;;;;;;;;;7392488;19;20501;-85
2023/08/05 18:36:27;;;;;;;0.57;0.57;;;;;;;;;;7392840;19;20144;-86
2023/08/05 18:39:00;;;;;;;0.40;0.40;;;;;;;;;;7395558;19;20145;-88
2023/08/05 18:41:40;;;;;;;0.40;0.40;;;;;;;;;;7389917;19;20172;-86
2023/08/05 18:44:10;;;;;;;0.73;0.70;;;;;;;;;;7396982;19;20185;-88
2023/08/05 18:46:37;;;;;;;0.30;0.30;;;;;;;;;;7395612;19;20636;-88
2023/08/05 18:49:03;;;;;;;0.40;0.40;;;;;;;;;;7398635;19;20177;-89
2023/08/05 18:51:30;;;;;;;0.63;0.63;;;;;;;;;;7397902;19;20150;-89
2023/08/05 18:53:57;;;;;;;0.47;0.47;;;;;;;;;;7393663;19;20145;-88
2023/08/05 18:56:23;;;;;;;0.77;0.77;;;;;;;;;;7412982;19;20145;-88
2023/08/05 19:14:02;;;;;;;0.85;0.75;;;;;;;;;;7397252;19;20144;-88
2023/08/05 19:16:29;;;;;;;0.45;0.45;;;;;;;;;;7395143;19;20145;-88
2023/08/05 19:18:56;;;;;;;1.02;1.02;;;;;;;;;;7395993;19;20153;-88
2023/08/05 19:21:22;;;;;;;0.57;0.57;;;;;;;;;;7397188;19;20129;-87
2023/08/05 19:24:15;;;;;;;0.60;0.60;;;;;;;;;;7395195;19;21118;-88
2023/08/05 19:27:10;;;;;;;0.50;0.50;;;;;;;;;;7416696;19;20149;-90
2023/08/05 19:29:42;;;;;;;0.45;0.45;;;;;;;;;;7406009;19;20499;-86
2023/08/05 19:32:17;;;;;;;0.35;0.35;;;;;;;;;;7404305;19;20161;-89
2023/08/05 19:34:58;;;;;;;0.50;0.50;;;;;;;;;;7398364;19;20164;-88
2023/08/05 19:37:25;;;;;;;0.60;0.60;;;;;;;;;;7400741;19;20129;-88
2023/08/05 19:39:52;;;;;;;0.40;0.40;;;;;;;;;;7397854;19;20165;-88
2023/08/05 19:42:19;;;;;;;0.40;0.40;;;;;;;;;;7398418;19;20133;-89
2023/08/05 19:44:46;;;;;;;0.75;0.75;;;;;;;;;;7398237;19;20158;-89
2023/08/05 19:47:14;;;;;;;2.20;1.00;;;;;;;;;;7397345;19;20140;-87
2023/08/05 19:53:09;;;;;;;0.50;0.50;;;;;;;;;;7399128;19;20123;-90
2023/08/05 19:55:39;;;;;;;0.40;0.40;;;;;;;;;;7399795;19;20487;-89
